Time;durP1;ratioP1;P1;durP2;ratioP2;P2;SDS_P1;SDS_P2;PMS_P1;PMS_P2;Temp;Humidity;BMP_temperature;BMP_pressure;BME280_temperature;BME280_humidity;BME280_pressure;Samples;Min_cycle;Max_cycle;Signal;HPM_P1;HPM_P2
2022/12/14 00:03:20;;;;;;;;;;;-5.50;99.90;;;-6.57;100.00;94357.03;10509533;28;1978;-75
2022/12/14 00:08:22;;;;;;;;;;;-5.50;99.90;;;-6.48;100.00;94364.69;10509386;28;2045;-72
2022/12/14 00:13:26;;;;;;;;;;;-5.40;99.90;;;-6.55;100.00;94354.22;10514636;28;2022;-71
2022/12/14 00:18:29;;;;;;;;;;;-5.40;99.90;;;-6.62;100.00;94342.94;10513708;28;1924;-70
2022/12/14 00:23:32;;;;;;;;;;;-5.30;99.90;;;-6.66;100.00;94352.22;10511413;28;2018;-72
2022/12/14 00:28:41;;;;;;;;;;;-5.50;99.90;;;-6.57;100.00;94391.00;10511128;28;1978;-70
2022/12/14 00:33:44;;;;;;;;;;;-5.50;99.90;;;-6.61;100.00;94381.97;10525882;28;2093;-71
2022/12/14 00:38:47;;;;;;;;;;;-5.50;99.90;;;-6.41;100.00;94378.53;10511052;28;2153;-71
2022/12/14 00:43:51;;;;;;;;;;;-5.40;99.90;;;-6.28;100.00;94375.91;10521384;28;2004;-71
2022/12/14 00:48:53;;;;;;;;;;;-5.20;99.90;;;-6.46;100.00;94367.88;10522799;28;1900;-73
2022/12/14 00:53:56;;;;;;;;;;;-5.30;99.90;;;-6.48;100.00;94356.84;10519895;28;2097;-69
2022/12/14 00:59:00;;;;;;;;;;;-5.30;99.90;;;-6.41;100.00;94334.91;10522448;28;2027;-70
2022/12/14 01:04:18;;;;;;;;;;;-5.30;99.90;;;-6.37;100.00;94370.06;10519146;28;1962;-70
2022/12/14 01:09:21;;;;;;;;;;;-5.30;99.90;;;-6.24;100.00;94377.09;10509361;28;2063;-72
2022/12/14 01:14:24;;;;;;;;;;;-5.20;99.90;;;-6.23;100.00;94383.94;10522346;28;1935;-73
2022/12/14 01:19:26;;;;;;;;;;;-5.10;99.90;;;-6.31;100.00;94376.28;10513464;28;2089;-71
2022/12/14 01:24:29;;;;;;;;;;;-5.10;99.90;;;-6.24;100.00;94386.75;10503844;28;1994;-70
2022/12/14 01:29:32;;;;;;;;;;;-5.10;99.90;;;-6.24;100.00;94364.00;10511827;28;2100;-70
2022/12/14 01:34:34;;;;;;;;;;;-5.10;99.90;;;-6.15;100.00;94375.88;10512792;28;1940;-71
2022/12/14 01:39:37;;;;;;;;;;;-5.00;99.90;;;-6.23;100.00;94362.19;10514990;28;1883;-69
2022/12/14 01:44:40;;;;;;;;;;;-5.10;99.90;;;-6.40;100.00;94346.16;10517677;28;1983;-71
2022/12/14 01:49:44;;;;;;;;;;;-5.10;99.90;;;-6.31;100.00;94365.84;10516546;28;1922;-71
2022/12/14 01:54:49;;;;;;;;;;;-5.20;99.90;;;-6.34;100.00;94361.03;10524085;28;1763;-70
2022/12/14 02:00:00;;;;;;;;;;;-5.10;99.90;;;-6.34;100.00;94356.59;10519776;28;1720;-72
2022/12/14 02:05:09;;;;;;;;;;;-5.10;99.90;;;-6.32;100.00;94356.38;10513843;28;1982;-70
2022/12/14 02:10:13;;;;;;;;;;;-5.20;99.90;;;-6.27;100.00;94343.50;10512899;28;1939;-71
2022/12/14 02:15:16;;;;;;;;;;;-5.10;99.90;;;-6.13;100.00;94357.34;10500069;28;2091;-69
2022/12/14 02:20:20;;;;;;;;;;;-5.00;99.90;;;-6.13;100.00;94332.00;10504824;28;2031;-70
2022/12/14 02:25:23;;;;;;;;;;;-5.00;99.90;;;-6.07;100.00;94340.84;10504413;28;1946;-71
2022/12/14 02:30:25;;;;;;;;;;;-4.90;99.90;;;-5.94;100.00;94330.34;10510605;28;1927;-69
2022/12/14 02:35:28;;;;;;;;;;;-4.90;99.90;;;-5.81;100.00;94324.22;10510835;28;2038;-71
2022/12/14 02:40:31;;;;;;;;;;;-4.60;99.90;;;-5.95;100.00;94307.00;10503469;28;2130;-70
2022/12/14 02:45:43;;;;;;;;;;;-4.60;99.90;;;-6.10;100.00;94320.34;10511988;28;1918;-71
2022/12/14 02:50:46;;;;;;;;;;;-4.90;99.90;;;-5.94;100.00;94300.75;10520848;28;2030;-70
2022/12/14 02:55:49;;;;;;;;;;;-4.90;99.90;;;-5.85;100.00;94312.53;10520773;28;1969;-70
2022/12/14 03:00:58;;;;;;;;;;;-4.80;99.90;;;-5.76;100.00;94301.63;10507417;28;2090;-70
2022/12/14 03:06:01;;;;;;;;;;;-4.70;99.90;;;-5.86;100.00;94300.47;10504990;28;2030;-72
2022/12/14 03:11:03;;;;;;;;;;;-4.80;99.90;;;-5.73;100.00;94287.31;10507966;28;1926;-73
2022/12/14 03:16:06;;;;;;;;;;;-4.80;99.90;;;-5.79;100.00;94270.66;10513613;28;2042;-72
2022/12/14 03:21:09;;;;;;;;;;;-4.70;99.90;;;-5.91;100.00;94268.94;10510647;28;1907;-75
2022/12/14 03:26:11;;;;;;;;;;;-4.80;99.90;;;-5.85;100.00;94268.06;10510251;28;1991;-72
2022/12/14 03:31:14;;;;;;;;;;;-4.90;99.90;;;-5.89;100.00;94267.69;10502994;28;2032;-71
2022/12/14 03:36:17;;;;;;;;;;;-4.80;99.90;;;-5.86;100.00;94258.59;10519836;28;2111;-71
2022/12/14 03:41:20;;;;;;;;;;;-4.80;99.90;;;-5.90;100.00;94279.16;10504017;28;2125;-73
2022/12/14 03:46:22;;;;;;;;;;;-4.80;99.90;;;-5.84;100.00;94267.06;10482791;28;2103;-70
2022/12/14 03:51:25;;;;;;;;;;;-4.80;99.90;;;-5.72;100.00;94274.03;10510455;28;1981;-71
2022/12/14 03:56:28;;;;;;;;;;;-4.80;99.90;;;-5.57;100.00;94271.13;10518400;28;2077;-71
2022/12/14 04:01:31;;;;;;;;;;;-4.60;99.90;;;-5.65;100.00;94274.00;10499369;28;2137;-73
2022/12/14 04:06:33;;;;;;;;;;;-4.60;99.90;;;-5.72;100.00;94275.88;10512803;28;1969;-71
2022/12/14 04:22:17;;;;;;;;;;;-4.60;99.90;;;-5.43;100.00;94243.84;10503605;28;2041;-72
2022/12/14 04:27:19;;;;;;;;;;;-4.50;99.90;;;-5.48;100.00;94232.41;10516649;28;1981;-71
2022/12/14 04:32:22;;;;;;;;;;;-4.50;99.90;;;-5.30;100.00;94227.22;10510373;28;2108;-72
2022/12/14 04:37:26;;;;;;;;;;;;;;;-5.41;100.00;94206.97;10505325;28;2041;-71
2022/12/14 04:42:29;;;;;;;;;;;;;;;-5.41;100.00;94203.53;10507673;28;2129;-73
2022/12/14 04:47:32;;;;;;;;;;;;;;;-5.33;100.00;94209.34;10510050;28;1945;-72
2022/12/14 04:52:40;;;;;;;;;;;;;;;-5.49;100.00;94202.78;10506773;28;1963;-73
2022/12/14 04:57:44;;;;;;;;;;;;;;;-5.35;100.00;94197.44;10509388;28;1922;-73
2022/12/14 05:02:47;;;;;;;;;;;;;;;-5.37;100.00;94199.50;10510025;28;1917;-71
2022/12/14 05:07:51;;;;;;;;;;;;;;;-5.43;100.00;94201.16;10503182;28;2105;-70
2022/12/14 05:13:03;;;;;;;;;;;;;;;-5.44;100.00;94205.59;10503606;28;1902;-72
2022/12/14 05:18:06;;;;;;;;;;;;;;;-5.28;100.00;94204.25;10510857;28;1994;-71
2022/12/14 05:23:09;;;;;;;;;;;-4.30;99.90;;;-5.08;100.00;94193.63;10506159;28;1974;-70
2022/12/14 05:28:12;;;;;;;;;;;-3.90;99.90;;;-5.19;100.00;94194.31;10511308;28;1978;-71
2022/12/14 05:33:14;;;;;;;;;;;-4.00;99.90;;;-5.22;100.00;94203.41;10514182;28;1962;-72
2022/12/14 05:38:17;;;;;;;;;;;-3.90;99.90;;;-5.29;100.00;94180.88;10509206;28;1976;-72
2022/12/14 05:43:21;;;;;;;;;;;-4.00;99.90;;;-5.18;100.00;94182.81;10515919;28;1983;-73
2022/12/14 05:48:24;;;;;;;;;;;-3.90;99.90;;;-5.28;100.00;94166.78;10524728;28;1959;-72
2022/12/14 05:53:27;;;;;;;;;;;-3.90;99.90;;;-5.25;100.00;94164.53;10509142;28;1829;-77
2022/12/14 05:58:31;;;;;;;;;;;-4.00;99.90;;;-5.26;100.00;94165.56;10522636;28;2060;-75
2022/12/14 06:03:33;;;;;;;;;;;-4.00;99.90;;;-5.30;100.00;94147.84;10518500;28;1880;-70
2022/12/14 06:08:36;;;;;;;;;;;-4.00;99.90;;;-5.26;100.00;94143.81;10496289;28;2028;-71
2022/12/14 06:13:38;;;;;;;;;;;-3.90;99.90;;;-5.44;100.00;94137.50;10518495;28;2002;-71
2022/12/14 06:18:41;;;;;;;;;;;-4.00;99.90;;;-5.55;100.00;94134.78;10517352;28;1986;-71
2022/12/14 06:23:44;;;;;;;;;;;-4.20;99.90;;;-5.26;100.00;94149.03;10520247;28;1946;-72
2022/12/14 06:28:47;;;;;;;;;;;-4.10;99.90;;;-5.22;100.00;94145.78;10516122;28;2196;-72
2022/12/14 06:33:50;;;;;;;;;;;-4.00;99.90;;;-5.16;100.00;94138.84;10506720;28;2031;-73
2022/12/14 06:38:52;;;;;;;;;;;-3.90;99.90;;;-5.27;100.00;94131.72;10507740;28;2022;-72
2022/12/14 06:43:55;;;;;;;;;;;-4.00;99.90;;;-5.16;100.00;94131.00;10522194;28;1899;-71
2022/12/14 06:48:58;;;;;;;;;;;-3.90;99.90;;;-4.93;100.00;94117.25;10522044;28;1921;-71
2022/12/14 06:54:01;;;;;;;;;;;-3.80;99.90;;;-4.93;100.00;94122.50;10518906;28;1986;-72
2022/12/14 06:59:04;;;;;;;;;;;-3.90;99.90;;;-4.90;100.00;94106.34;10518769;28;1911;-73
2022/12/14 07:04:07;;;;;;;;;;;-3.80;99.90;;;-4.91;100.00;94100.28;10505334;28;1971;-74
2022/12/14 07:09:10;;;;;;;;;;;-3.80;99.90;;;-4.91;100.00;94097.66;10523064;28;1949;-71
2022/12/14 07:14:12;;;;;;;;;;;-3.80;99.90;;;-4.86;100.00;94102.25;10517983;28;1966;-73
2022/12/14 07:19:15;;;;;;;;;;;-3.90;99.90;;;-4.77;100.00;94095.72;10517906;28;1981;-72
2022/12/14 07:24:17;;;;;;;;;;;-3.70;99.90;;;-4.82;100.00;94098.19;10522563;28;2021;-71
2022/12/14 07:29:20;;;;;;;;;;;-3.80;99.90;;;-5.03;100.00;94101.22;10510511;28;1984;-72
2022/12/14 07:34:23;;;;;;;;;;;;;;;-4.92;100.00;94092.66;10516713;28;2073;-70
2022/12/14 07:39:26;;;;;;;;;;;-3.90;99.90;;;-4.81;100.00;94076.19;10506594;28;1982;-75
2022/12/14 07:44:39;;;;;;;;;;;-3.70;99.90;;;-4.83;100.00;94080.06;10516083;28;1969;-74
2022/12/14 07:49:42;;;;;;;;;;;-3.60;99.90;;;-4.78;100.00;94069.72;10513295;28;2023;-72
2022/12/14 07:54:44;;;;;;;;;;;-3.60;99.90;;;-4.68;100.00;94072.63;10505769;28;1974;-71
2022/12/14 07:59:48;;;;;;;;;;;-3.60;99.90;;;-4.78;100.00;94073.13;10508465;28;2171;-74
2022/12/14 08:04:58;;;;;;;;;;;-3.60;99.90;;;-4.47;100.00;94069.50;10512996;28;1926;-72
2022/12/14 08:10:01;;;;;;;;;;;-3.40;99.90;;;-4.37;100.00;94066.38;10519324;28;1974;-71
2022/12/14 08:15:04;;;;;;;;;;;-3.50;99.90;;;-4.19;100.00;94055.81;10494379;28;1944;-72
2022/12/14 08:20:07;;;;;;;;;;;-3.30;99.90;;;-4.26;100.00;94044.63;10519986;28;1792;-73
2022/12/14 08:25:10;;;;;;;;;;;;;;;-3.96;100.00;94049.81;10521996;28;1901;-72
2022/12/14 08:30:13;;;;;;;;;;;;;;;-3.74;100.00;94041.41;10516563;28;1979;-71
2022/12/14 08:35:16;;;;;;;;;;;;;;;-4.15;100.00;94025.47;10527667;28;1899;-70
2022/12/14 08:40:19;;;;;;;;;;;;;;;-4.39;100.00;94026.41;10509680;28;2383;-70
2022/12/14 08:45:26;;;;;;;;;;;;;;;-4.14;100.00;94027.06;10511071;28;1996;-73
2022/12/14 08:50:29;;;;;;;;;;;-3.20;99.90;;;-4.04;100.00;94029.13;10515962;28;2055;-72
2022/12/14 08:55:33;;;;;;;;;;;-3.20;99.90;;;-3.70;100.00;94029.41;10518942;28;1983;-72
2022/12/14 09:00:40;;;;;;;;;;;-2.90;99.90;;;-3.65;100.00;94021.63;10520890;28;1982;-74
2022/12/14 09:05:43;;;;;;;;;;;;;;;-3.74;100.00;93994.13;10520394;28;2131;-73
2022/12/14 09:10:46;;;;;;;;;;;;;;;-3.61;100.00;93999.16;10514185;28;2168;-71
2022/12/14 09:15:49;;;;;;;;;;;;;;;-3.91;100.00;94000.06;10527736;28;1966;-71
2022/12/14 09:20:54;;;;;;;;;;;;;;;-3.84;100.00;94007.81;10527360;28;1963;-72
2022/12/14 09:26:05;;;;;;;;;;;;;;;-3.88;100.00;93999.63;10519247;28;1994;-72
2022/12/14 09:31:09;;;;;;;;;;;;;;;-3.88;100.00;93996.16;10530157;28;1941;-71
2022/12/14 09:36:13;;;;;;;;;;;;;;;-3.88;100.00;94002.25;10516776;28;1911;-72
2022/12/14 09:41:16;;;;;;;;;;;;;;;-3.84;100.00;93995.50;10521179;28;1995;-71
2022/12/14 09:46:20;;;;;;;;;;;;;;;-3.59;100.00;93976.06;10522785;28;2026;-73
2022/12/14 09:51:23;;;;;;;;;;;;;;;-3.43;100.00;93969.34;10526780;28;1979;-75
2022/12/14 09:56:27;;;;;;;;;;;;;;;-3.30;100.00;93959.38;10519331;28;1926;-71
2022/12/14 10:01:31;;;;;;;;;;;;;;;-3.41;100.00;93931.28;10516034;28;2010;-73
2022/12/14 10:06:35;;;;;;;;;;;;;;;-3.44;100.00;93933.56;10531438;28;1964;-72
2022/12/14 10:11:38;;;;;;;;;;;;;;;-3.05;100.00;93924.09;10511143;28;2140;-71
2022/12/14 10:16:41;;;;;;;;;;;;;;;-2.93;100.00;93916.94;10522656;28;2109;-72
2022/12/14 10:21:52;;;;;;;;;;;;;;;-3.03;100.00;93898.38;10527991;28;1953;-71
2022/12/14 10:26:56;;;;;;;;;;;;;;;-2.83;100.00;93885.59;10524331;28;1973;-75
2022/12/14 10:31:59;;;;;;;;;;;;;;;-2.59;100.00;93875.75;10508828;28;1929;-73
2022/12/14 10:37:06;;;;;;;;;;;;;;;-2.49;100.00;93869.81;10522010;28;1929;-76
2022/12/14 10:42:09;;;;;;;;;;;;;;;-2.43;100.00;93868.88;10508342;28;1977;-70
2022/12/14 10:47:14;;;;;;;;;;;;;;;-2.23;100.00;93876.28;10517034;28;1975;-69
2022/12/14 10:52:17;;;;;;;;;;;;;;;-2.02;100.00;93890.56;10529934;28;1969;-70
2022/12/14 10:57:25;;;;;;;;;;;;;;;-1.91;100.00;93865.94;10510724;28;2041;-72
2022/12/14 11:02:28;;;;;;;;;;;;;;;-1.69;100.00;93858.88;10522776;28;1979;-70
2022/12/14 11:07:31;;;;;;;;;;;;;;;-1.50;100.00;93867.28;10509257;28;2224;-68
2022/12/14 11:12:36;;;;;;;;;;;;;;;-1.37;100.00;93853.72;10503004;28;2097;-75
2022/12/14 11:17:39;;;;;;;;;;;;;;;-1.42;100.00;93847.59;10516326;28;1915;-76
2022/12/14 11:22:42;;;;;;;;;;;;;;;-1.27;100.00;93858.34;10518204;28;1962;-75
2022/12/14 11:27:45;;;;;;;;;;;;;;;-1.50;100.00;93840.13;10517776;28;1995;-72
2022/12/14 11:32:52;;;;;;;;;;;;;;;-1.56;100.00;93831.38;10520478;28;1954;-72
2022/12/14 11:37:55;;;;;;;;;;;;;;;-1.16;100.00;93846.84;10520246;28;2193;-72
2022/12/14 11:42:58;;;;;;;;;;;;;;;-1.05;100.00;93837.19;10496007;28;2043;-72
2022/12/14 11:48:01;;;;;;;;;;;;;;;-1.08;100.00;93821.88;10519948;28;1901;-72
2022/12/14 11:53:05;;;;;;;;;;;;;;;-1.17;100.00;93816.25;10504007;28;2052;-71
2022/12/14 11:58:13;;;;;;;;;;;;;;;-1.17;100.00;93815.44;10513957;28;2101;-74
2022/12/14 12:03:17;;;;;;;;;;;;;;;-1.27;100.00;93818.78;10511425;28;1911;-72
2022/12/14 12:08:21;;;;;;;;;;;;;;;-1.33;100.00;93829.53;10535182;28;1906;-71
2022/12/14 12:13:24;;;;;;;;;;;;;;;-1.20;100.00;93845.75;10530082;28;1725;-72
2022/12/14 12:18:28;;;;;;;;;;;;;;;-1.18;100.00;93817.28;10528156;28;1910;-71
2022/12/14 12:23:32;;;;;;;;;;;;;;;-1.11;100.00;93817.88;10521424;28;2180;-70
2022/12/14 12:28:35;;;;;;;;;;;;;;;-1.22;100.00;93823.31;10514911;28;1923;-70
2022/12/14 12:33:40;;;;;;;;;;;;;;;-1.27;100.00;93802.16;10528972;28;2006;-71
2022/12/14 12:38:43;;;;;;;;;;;;;;;-1.27;100.00;93813.53;10535973;28;2205;-70
2022/12/14 12:43:53;;;;;;;;;;;;;;;-1.10;100.00;93794.94;10533463;28;2074;-71
2022/12/14 12:48:56;;;;;;;;;;;;;;;-1.05;100.00;93802.13;10517963;28;2018;-70
2022/12/14 12:54:00;;;;;;;;;;;;;;;-1.16;100.00;93815.19;10525954;28;1934;-69
2022/12/14 12:59:03;;;;;;;;;;;;;;;-1.28;100.00;93796.09;10521145;28;1907;-70
2022/12/14 13:04:09;;;;;;;;;;;;;;;-1.25;100.00;93813.25;10523142;28;1892;-70
2022/12/14 13:09:12;;;;;;;;;;;;;;;-1.11;100.00;93807.34;10532059;28;1981;-69
2022/12/14 13:14:15;;;;;;;;;;;;;;;-1.23;100.00;93819.88;10506713;28;1963;-71
2022/12/14 13:19:19;;;;;;;;;;;;;;;-1.22;100.00;93841.75;10517754;28;1979;-69
2022/12/14 13:24:43;;;;;;;;;;;;;;;-1.07;100.00;93841.13;10531958;28;2030;-69
2022/12/14 13:29:47;;;;;;;;;;;;;;;-0.94;100.00;93844.16;10534457;28;1967;-70
2022/12/14 13:34:50;;;;;;;;;;;;;;;-1.01;100.00;93848.06;10542601;28;1142;-71
2022/12/14 13:39:53;;;;;;;;;;;;;;;-1.04;100.00;93867.00;10517913;28;2236;-69
2022/12/14 13:44:57;;;;;;;;;;;;;;;-1.14;100.00;93870.34;10531112;28;2034;-71
2022/12/14 13:50:00;;;;;;;;;;;;;;;-1.10;100.00;93856.38;10522179;28;1971;-71
2022/12/14 13:55:23;;;;;;;;;;;;;;;-1.14;100.00;93860.59;10525616;28;1392;-72
2022/12/14 14:00:27;;;;;;;;;;;;;;;-0.93;100.00;93863.41;10537039;28;1128;-72
2022/12/14 14:05:30;;;;;;;;;;;;;;;-0.94;100.00;93864.47;10521868;28;1848;-70
2022/12/14 14:10:33;;;;;;;;;;;;;;;-0.86;100.00;93856.09;10524341;28;1970;-71
2022/12/14 14:15:37;;;;;;;;;;;;;;;-0.75;100.00;93863.06;10528358;28;1848;-69
2022/12/14 14:21:03;;;;;;;;;;;;;;;-0.78;100.00;93858.28;10510589;28;1959;-70
2022/12/14 14:26:06;;;;;;;;;;;;;;;-0.75;100.00;93857.00;10533953;28;1975;-71
2022/12/14 14:31:12;;;;;;;;;;;;;;;-0.81;100.00;93842.97;10520525;28;2085;-71
2022/12/14 14:36:16;;;;;;;;;;;;;;;-0.81;100.00;93842.97;10521079;28;1966;-72
2022/12/14 14:41:19;;;;;;;;;;;;;;;-0.74;100.00;93854.09;10526947;28;1962;-71
2022/12/14 14:46:22;;;;;;;;;;;;;;;-0.66;100.00;93851.00;10528907;28;1912;-75
2022/12/14 14:51:25;;;;;;;;;;;;;;;-0.72;100.00;93846.72;10518005;28;1947;-73
2022/12/14 14:56:29;;;;;;;;;;;;;;;-0.65;100.00;93859.72;10518757;28;1915;-72
2022/12/14 15:01:32;;;;;;;;;;;;;;;-0.64;100.00;93867.38;10504561;28;1982;-71
2022/12/14 15:06:36;;;;;;;;;;;;;;;-0.65;100.00;93868.44;10500639;28;2056;-73
2022/12/14 15:11:39;;;;;;;;;;;;;;;-0.71;100.00;93864.16;10526246;28;1957;-73
2022/12/14 15:16:43;;;;;;;;;;;;;;;-0.72;100.00;93862.56;10512500;28;1959;-72
2022/12/14 15:21:46;;;;;;;;;;;;;;;-0.68;100.00;93858.38;10491063;28;1959;-71
2022/12/14 15:26:49;;;;;;;;;;;;;;;-0.63;100.00;93866.34;10524649;28;1981;-73
2022/12/14 15:31:53;;;;;;;;;;;;;;;-0.60;100.00;93870.31;10506586;28;2053;-72
2022/12/14 15:37:02;;;;;;;;;;;;;;;-0.61;100.00;93868.75;10515426;28;1974;-72
2022/12/14 15:42:05;;;;;;;;;;;;;;;-0.63;100.00;93879.56;10510540;28;2121;-74
2022/12/14 15:47:08;;;;;;;;;;;;;;;-0.53;100.00;93881.47;10485708;28;2350;-71
2022/12/14 15:52:12;;;;;;;;;;;;;;;-0.46;100.00;93889.97;10497404;28;1967;-72
2022/12/14 15:57:15;;;;;;;;;;;;;;;-0.42;100.00;93898.19;10515446;28;2267;-71
2022/12/14 16:02:19;;;;;;;;;;;;;;;-0.45;100.00;93896.03;10512632;28;1946;-72
2022/12/14 16:07:22;;;;;;;;;;;;;;;-0.43;100.00;93905.31;10513180;28;2138;-70
2022/12/14 16:12:26;;;;;;;;;;;;;;;-0.46;100.00;93905.81;10520458;28;2163;-71
2022/12/14 16:17:32;;;;;;;;;;;;;;;-0.40;100.00;93914.56;10504106;28;2101;-70
2022/12/14 16:22:35;;;;;;;;;;;;;;;-0.35;100.00;93931.25;10517163;28;2044;-69
2022/12/14 16:27:46;;;;;;;;;;;;;;;-0.35;100.00;93935.75;10504664;28;1994;-71
2022/12/14 16:32:52;;;;;;;;;;;;;;;-0.36;100.00;93948.16;10501734;28;2017;-71
2022/12/14 16:37:56;;;;;;;;;;;;;;;-0.34;100.00;93959.25;10513126;28;1962;-70
2022/12/14 16:42:59;;;;;;;;;;;;;;;-0.43;100.00;93966.03;10510554;28;2124;-70
2022/12/14 16:48:02;;;;;;;;;;;;;;;-0.44;100.00;93968.94;10503988;28;2016;-73
2022/12/14 16:53:08;;;;;;;;;;;;;;;-0.33;100.00;93971.41;10526009;28;2351;-71
2022/12/14 16:58:12;;;;;;;;;;;;;;;-0.25;100.00;93972.81;10517088;28;1915;-70
2022/12/14 17:03:15;;;;;;;;;;;;;;;-0.23;100.00;93976.00;10504739;28;2014;-70
2022/12/14 17:08:18;;;;;;;;;;;;;;;-0.17;100.00;93976.84;10507140;28;1975;-70
2022/12/14 17:13:21;;;;;;;;;;;;;;;-0.17;100.00;93993.47;10509131;28;2184;-71
2022/12/14 17:18:24;;;;;;;;;;;;;;;-0.14;100.00;93995.59;10520317;28;1962;-70
2022/12/14 17:23:28;;;;;;;;;;;;;;;-0.26;100.00;93997.59;10525618;28;1985;-72
2022/12/14 17:28:33;;;;;;;;;;;;;;;-0.16;100.00;94010.13;10526645;28;1922;-71
2022/12/14 17:33:37;;;;;;;;;;;;;;;-0.11;100.00;94021.53;10519620;28;1973;-69
2022/12/14 17:38:40;;;;;;;;;;;;;;;-0.03;100.00;94029.00;10504482;28;1966;-72
2022/12/14 17:43:44;;;;;;;;;;;;;;;-0.05;100.00;94012.59;10513567;28;2021;-70
2022/12/14 17:48:57;;;;;;;;;;;;;;;0.03;100.00;94027.19;10526392;28;1977;-72
2022/12/14 17:54:08;;;;;;;;;;;;;;;0.01;100.00;94039.88;10538238;28;1787;-72
2022/12/14 17:59:15;;;;;;;;;;;;;;;-0.08;100.00;94051.91;10546142;28;1814;-70
2022/12/14 18:04:19;;;;;;;;;;;;;;;-0.04;100.00;94063.59;10508179;28;1895;-71
2022/12/14 18:09:22;;;;;;;;;;;;;;;-0.06;100.00;94060.41;10526021;28;2005;-71
2022/12/14 18:14:26;;;;;;;;;;;;;;;0.10;100.00;94069.28;10531868;28;1819;-71
2022/12/14 18:19:29;;;;;;;;;;;;;;;-0.01;100.00;94071.00;10544959;28;1838;-72
2022/12/14 18:24:33;;;;;;;;;;;;;;;0.14;100.00;94070.38;10546032;28;1697;-73
2022/12/14 18:29:37;;;;;;;;;;;;;;;0.03;100.00;94080.03;10529885;28;1968;-71
2022/12/14 18:34:40;;;;;;;;;;;;;;;-0.08;100.00;94092.34;10528538;28;1859;-71
2022/12/14 18:39:44;;;;;;;;;;;;;;;-0.02;100.00;94104.53;10536549;28;1935;-70
2022/12/14 18:44:52;;;;;;;;;;;;;;;0.07;100.00;94117.34;10535941;28;1828;-71
2022/12/14 18:49:55;;;;;;;;;;;;;;;-0.11;100.00;94126.38;10534396;28;1954;-71
2022/12/14 18:54:59;;;;;;;;;;;;;;;-0.20;100.00;94133.91;10515755;28;1760;-71
2022/12/14 19:00:03;;;;;;;;;;;;;;;-0.08;100.00;94139.06;10533316;28;1849;-72
2022/12/14 19:05:06;;;;;;;;;;;;;;;-0.22;100.00;94146.59;10539488;28;1763;-72
2022/12/14 19:10:14;;;;;;;;;;;;;;;-0.15;100.00;94157.75;10520194;28;1906;-71
2022/12/14 19:15:17;;;;;;;;;;;;;;;-0.19;100.00;94150.56;10533340;28;1804;-72
2022/12/14 19:20:21;;;;;;;;;;;;;;;-0.31;100.00;94148.06;10538524;28;1730;-71
2022/12/14 19:25:24;;;;;;;;;;;;;;;-0.33;100.00;94155.41;10531147;28;1326;-72
2022/12/14 19:30:29;;;;;;;;;;;;;;;-0.36;100.00;94161.19;10518058;28;2144;-69
2022/12/14 19:35:32;;;;;;;;;;;;;;;-0.36;100.00;94146.16;10532622;28;1404;-70
2022/12/14 19:40:36;;;;;;;;;;;;;;;-0.39;100.00;94144.00;10513636;28;1455;-71
2022/12/14 19:45:39;;;;;;;;;;;;;;;-0.42;100.00;94156.91;10533965;28;1397;-72
2022/12/14 19:50:43;;;;;;;;;;;;;;;-0.47;100.00;94157.63;10515832;28;1984;-70
2022/12/14 19:55:51;;;;;;;;;;;;;;;-0.43;100.00;94160.59;10512218;28;1930;-70
2022/12/14 20:00:55;;;;;;;;;;;;;;;-0.47;100.00;94159.47;10503227;28;2097;-72
2022/12/14 20:05:58;;;;;;;;;;;;;;;-0.46;100.00;94163.69;10502936;28;2015;-73
2022/12/14 20:11:02;;;;;;;;;;;;;;;-0.37;100.00;94172.81;10509315;28;2107;-71
2022/12/14 20:16:06;;;;;;;;;;;;;;;-0.44;100.00;94185.38;10520254;28;1923;-72
2022/12/14 20:21:09;;;;;;;;;;;;;;;-0.51;100.00;94184.75;10515716;28;1975;-72
2022/12/14 20:26:13;;;;;;;;;;;;;;;-0.58;100.00;94185.72;10511959;28;1959;-71
2022/12/14 20:31:16;;;;;;;;;;;;;;;-0.58;100.00;94188.34;10520367;28;1991;-72
2022/12/14 20:36:21;;;;;;;;;;;;;;;-0.58;100.00;94196.28;10520841;28;1915;-72
2022/12/14 20:41:24;;;;;;;;;;;;;;;-0.55;100.00;94198.44;10519717;28;1931;-71
2022/12/14 20:46:27;;;;;;;;;;;;;;;-0.55;100.00;94190.53;10518555;28;1919;-73
2022/12/14 20:51:31;;;;;;;;;;;;;;;-0.63;100.00;94204.13;10526968;28;1938;-71
2022/12/14 20:56:34;;;;;;;;;;;;;;;-0.47;100.00;94218.34;10523241;28;1923;-72
2022/12/14 21:01:37;;;;;;;;;;;;;;;-0.49;100.00;94224.91;10520569;28;1962;-71
2022/12/14 21:06:40;;;;;;;;;;;;;;;-0.53;100.00;94216.66;10514784;28;2160;-70
2022/12/14 21:17:05;;;;;;;;;;;;;;;-0.46;100.00;94238.41;10524040;28;2159;-72
2022/12/14 21:22:08;;;;;;;;;;;;;;;-0.44;100.00;94243.47;10518198;28;2105;-72
2022/12/14 21:27:11;;;;;;;;;;;;;;;-0.49;100.00;94246.03;10535562;28;2175;-73
2022/12/14 21:32:14;;;;;;;;;;;;;;;-0.55;100.00;94243.31;10533830;28;1962;-72
2022/12/14 21:37:17;;;;;;;;;;;;;;;-0.60;100.00;94237.94;10521701;28;2268;-71
2022/12/14 21:42:21;;;;;;;;;;;;;;;-0.58;100.00;94237.69;10526218;28;1986;-71
2022/12/14 21:47:24;;;;;;;;;;;;;;;-0.62;100.00;94237.41;10524007;28;1967;-72
2022/12/14 21:52:27;;;;;;;;;;;;;;;-0.48;100.00;94242.34;10523056;28;2089;-75
2022/12/14 22:02:53;;;;;;;;;;;;;;;-0.53;100.00;94250.97;10528292;28;2116;-72
2022/12/14 22:07:56;;;;;;;;;;;;;;;-0.56;100.00;94268.09;10530026;28;2099;-71
2022/12/14 22:12:59;;;;;;;;;;;;;;;-0.57;100.00;94287.63;10533767;28;2119;-71
2022/12/14 22:18:03;;;;;;;;;;;;;;;-0.57;100.00;94287.63;10517709;28;1962;-70
2022/12/14 22:23:06;;;;;;;;;;;;;;;-0.69;100.00;94271.06;10511653;28;2042;-71
2022/12/14 22:28:09;;;;;;;;;;;;;;;-0.77;100.00;94274.09;10507626;28;1973;-70
2022/12/14 22:33:13;;;;;;;;;;;;;;;-0.84;100.00;94284.81;10517455;28;2010;-70
2022/12/14 22:38:16;;;;;;;;;;;;;;;-0.92;100.00;94290.47;10507705;28;1916;-70
2022/12/14 22:43:19;;;;;;;;;;;;;;;-0.88;100.00;94285.53;10527861;28;1935;-70
2022/12/14 22:48:30;;;;;;;;;;;;;;;-1.07;100.00;94292.06;10507109;28;1967;-71
2022/12/14 22:53:33;;;;;;;;;;;;;;;-1.06;100.00;94293.66;10520559;28;1994;-71
2022/12/14 22:58:37;;;;;;;;;;;;;;;-1.12;100.00;94296.22;10513747;28;1935;-71
2022/12/14 23:03:40;;;;;;;;;;;;;;;-1.10;100.00;94283.56;10516969;28;1987;-69
